Time;durP1;ratioP1;P1;durP2;ratioP2;P2;SDS_P1;SDS_P2;PMS_P1;PMS_P2;Temp;Humidity;BMP_temperature;BMP_pressure;BME280_temperature;BME280_humidity;BME280_pressure;Samples;Min_cycle;Max_cycle;Signal;HPM_P1;HPM_P2
2021/07/23 00:02:03;;;;;;;16.27;8.93;;;;;;;13.84;83.72;101444.34;5055423;28;20439;-77
2021/07/23 00:04:28;;;;;;;16.13;8.43;;;;;;;13.81;83.92;101439.28;5073050;28;20047;-77
2021/07/23 00:06:54;;;;;;;14.23;8.33;;;;;;;13.89;83.67;101437.44;5071619;28;20032;-77
2021/07/23 00:09:19;;;;;;;18.47;9.13;;;;;;;13.86;83.25;101434.25;5072050;28;20461;-77
2021/07/23 00:11:44;;;;;;;16.73;9.13;;;;;;;13.85;83.95;101436.09;5071854;28;20110;-77
2021/07/23 00:14:10;;;;;;;16.97;9.27;;;;;;;13.81;84.35;101433.91;5071607;28;20129;-77
2021/07/23 00:16:36;;;;;;;15.97;9.40;;;;;;;13.71;85.23;101434.06;5071553;28;20062;-77
2021/07/23 00:19:01;;;;;;;17.88;8.95;;;;;;;13.71;84.88;101428.72;5072093;28;20044;-77
2021/07/23 00:21:26;;;;;;;15.07;8.13;;;;;;;13.68;85.00;101429.03;5054953;28;20036;-76
2021/07/23 00:23:52;;;;;;;21.10;8.30;;;;;;;13.66;85.17;101444.47;5072632;28;20039;-77
2021/07/23 00:26:21;;;;;;;16.73;9.57;;;;;;;13.60;85.44;101447.81;5071312;28;20112;-77
2021/07/23 00:28:47;;;;;;;15.00;9.65;;;;;;;13.54;85.59;101427.03;5072787;28;20028;-76
2021/07/23 00:31:13;;;;;;;20.63;10.73;;;;;;;13.55;85.84;101431.38;5071607;28;20073;-77
2021/07/23 00:33:40;;;;;;;18.48;10.65;;;;;;;13.44;86.05;101432.53;5071508;28;20041;-76
2021/07/23 00:36:06;;;;;;;18.10;9.80;;;;;;;13.49;86.03;101436.41;5071193;28;20036;-77
2021/07/23 00:38:31;;;;;;;17.47;9.03;;;;;;;13.41;86.13;101422.13;5071389;28;20020;-76
2021/07/23 00:40:56;;;;;;;19.83;9.67;;;;;;;13.24;86.35;101426.59;5071569;28;20040;-77
2021/07/23 00:43:22;;;;;;;16.33;9.17;;;;;;;13.21;86.32;101425.06;5072299;28;20059;-77
2021/07/23 00:45:49;;;;;;;18.40;10.77;;;;;;;13.12;86.89;101427.88;5071216;28;20058;-76
2021/07/23 00:48:14;;;;;;;22.15;8.68;;;;;;;13.12;86.90;101422.53;5071272;28;20040;-77
2021/07/23 00:50:42;;;;;;;23.67;11.02;;;;;;;13.04;87.06;101428.69;5072441;28;20346;-77
2021/07/23 00:53:09;;;;;;;18.70;9.48;;;;;;;12.99;87.25;101420.28;5071751;28;20410;-77
2021/07/23 00:55:38;;;;;;;16.65;10.35;;;;;;;13.01;87.44;101410.25;5071148;28;20020;-77
2021/07/23 00:58:05;;;;;;;22.98;11.00;;;;;;;13.03;87.46;101414.44;5070758;28;20032;-76
2021/07/23 01:00:32;;;;;;;21.27;10.68;;;;;;;13.04;87.59;101416.13;5071080;28;20351;-76
2021/07/23 01:03:01;;;;;;;23.20;11.23;;;;;;;13.00;88.02;101436.22;5071978;28;20024;-77
2021/07/23 01:05:28;;;;;;;19.38;10.40;;;;;;;13.02;87.81;101415.47;5070989;28;20064;-76
2021/07/23 01:07:54;;;;;;;24.23;11.65;;;;;;;13.03;88.20;101435.88;5070579;28;20445;-77
2021/07/23 01:10:19;;;;;;;21.90;10.20;;;;;;;13.10;87.84;101430.72;5072254;28;20089;-77
2021/07/23 01:13:12;;;;;;;21.20;10.75;;;;;;;13.02;88.14;101412.78;5070563;28;20038;-77
2021/07/23 01:15:39;;;;;;;21.95;10.25;;;;;;;13.05;88.32;101407.09;5054345;28;20048;-76
2021/07/23 01:18:05;;;;;;;22.05;11.27;;;;;;;13.07;88.30;101429.22;5070315;28;20024;-76
2021/07/23 01:20:32;;;;;;;26.00;11.70;;;;;;;13.02;88.56;101417.31;5070873;28;20044;-77
2021/07/23 01:23:01;;;;;;;24.63;10.82;;;;;;;12.97;88.50;101412.44;5071537;28;20032;-77
2021/07/23 01:25:29;;;;;;;21.25;11.65;;;;;;;12.94;88.61;101409.22;5054149;28;20027;-76
2021/07/23 01:27:55;;;;;;;19.88;11.57;;;;;;;12.92;88.40;101406.69;5053512;28;20441;-77
2021/07/23 01:30:41;;;;;;;19.05;11.00;;;;;;;12.85;88.70;101408.34;5071099;28;20040;-76
2021/07/23 01:33:17;;;;;;;20.40;11.60;;;;;;;12.75;89.06;101408.47;5070237;28;20147;-77
2021/07/23 01:35:44;;;;;;;20.10;10.57;;;;;;;12.74;88.95;101409.47;5053581;28;20460;-76
2021/07/23 01:38:10;;;;;;;26.50;11.48;;;;;;;12.76;89.29;101406.63;5071155;28;20032;-76
2021/07/23 01:40:36;;;;;;;22.85;10.93;;;;;;;12.74;89.09;101405.97;5070340;28;20036;-76
2021/07/23 01:43:02;;;;;;;21.30;10.33;;;;;;;12.71;89.20;101403.59;5053292;28;20028;-76
2021/07/23 01:45:27;;;;;;;24.95;12.65;;;;;;;12.61;89.02;101401.88;5069636;28;20044;-76
2021/07/23 01:48:15;;;;;;;17.65;11.70;;;;;;;12.55;89.20;101397.19;5051135;28;20055;-76
2021/07/23 01:50:41;;;;;;;23.93;12.17;;;;;;;12.52;89.78;101402.00;5053516;28;20028;-76
2021/07/23 01:53:06;;;;;;;23.33;11.17;;;;;;;12.50;89.46;101395.94;5069636;28;20028;-76
2021/07/23 01:55:46;;;;;;;22.35;12.63;;;;;;;12.47;89.67;101399.78;5069459;28;20102;-76
2021/07/23 01:58:12;;;;;;;24.47;13.10;;;;;;;12.45;89.53;101404.47;5068704;28;20067;-76
2021/07/23 02:00:37;;;;;;;21.95;12.85;;;;;;;12.36;89.67;101395.56;5053047;28;20066;-76
2021/07/23 02:03:07;;;;;;;20.77;11.25;;;;;;;12.30;89.54;101406.06;5069774;28;20385;-76
2021/07/23 02:05:34;;;;;;;26.63;13.05;;;;;;;12.29;89.84;101405.22;5052898;28;20039;-76
2021/07/23 02:08:00;;;;;;;19.13;12.00;;;;;;;12.26;89.91;101397.50;5069577;28;20029;-76
2021/07/23 02:10:26;;;;;;;25.15;11.27;;;;;;;12.20;89.73;101390.09;5069463;28;20066;-76
2021/07/23 02:12:52;;;;;;;25.42;11.95;;;;;;;12.16;89.73;101394.09;5052596;28;20055;-76
2021/07/23 02:15:36;;;;;;;27.55;11.90;;;;;;;12.09;89.69;101393.88;5069362;28;20044;-76
2021/07/23 02:18:03;;;;;;;;;;;;;;;12.07;89.97;101398.53;5069649;28;20037;-76
2021/07/23 02:20:32;;;;;;;24.60;12.13;;;;;;;12.07;89.86;101387.81;5069367;28;19968;-76
2021/07/23 02:22:57;;;;;;;20.83;10.17;;;;;;;11.99;89.79;101393.97;5069420;28;20413;-76
2021/07/23 02:25:41;;;;;;;21.85;10.93;;;;;;;11.99;89.75;101385.94;5069807;28;20580;-77
2021/07/23 02:28:07;;;;;;;22.10;12.07;;;;;;;11.97;89.69;101384.41;5070388;28;20077;-77
2021/07/23 02:30:32;;;;;;;19.77;11.83;;;;;;;11.92;89.62;101386.72;5069347;28;20060;-76
2021/07/23 02:33:21;;;;;;;20.27;11.27;;;;;;;11.91;89.85;101395.75;5070236;28;20059;-76
2021/07/23 02:35:47;;;;;;;19.23;10.70;;;;;;;11.83;89.54;101386.63;5052487;28;20477;-76
2021/07/23 02:38:13;;;;;;;22.75;11.65;;;;;;;11.85;89.57;101383.81;5069286;28;20123;-76
2021/07/23 02:40:41;;;;;;;26.83;13.38;;;;;;;11.89;89.87;101387.84;5069079;28;20029;-76
2021/07/23 02:43:06;;;;;;;32.70;14.93;;;;;;;12.07;90.53;101385.16;5070103;28;20058;-76
2021/07/23 02:45:36;;;;;;;28.58;15.25;;;;;;;12.22;91.02;101405.00;5068486;28;20102;-76
2021/07/23 02:48:03;;;;;;;35.67;16.33;;;;;;;12.26;91.02;101400.16;5069036;28;20068;-75
2021/07/23 02:50:29;;;;;;;33.03;15.20;;;;;;;12.28;91.23;101394.66;5052550;28;20056;-76
2021/07/23 02:52:56;;;;;;;;;;;;;;;12.27;91.02;101399.19;5070429;28;20036;-76
2021/07/23 02:55:21;;;;;;;26.55;14.77;;;;;;;12.18;90.96;101392.09;5069808;28;20006;-76
2021/07/23 02:57:49;;;;;;;34.55;15.50;;;;;;;12.10;90.97;101384.00;5068673;28;20115;-76
2021/07/23 03:00:17;;;;;;;30.33;14.18;;;;;;;12.08;90.89;101377.97;5053004;28;20032;-76
2021/07/23 03:02:46;;;;;;;28.95;12.85;;;;;;;12.03;90.87;101373.94;5052624;28;20052;-76
2021/07/23 03:05:12;;;;;;;31.07;13.43;;;;;;;11.99;90.64;101382.44;5068837;28;20055;-76
2021/07/23 03:07:39;;;;;;;37.35;16.08;;;;;;;11.96;90.95;101388.06;5068527;28;20029;-76
2021/07/23 03:10:05;;;;;;;34.53;16.30;;;;;;;11.93;90.77;101383.03;5069054;28;20039;-75
2021/07/23 03:12:33;;;;;;;29.73;14.45;;;;;;;11.87;90.80;101378.28;5069507;28;20033;-76
2021/07/23 03:14:59;;;;;;;30.52;14.23;;;;;;;11.82;90.99;101376.94;5068602;28;20100;-75
2021/07/23 03:17:25;;;;;;;29.58;14.68;;;;;;;11.79;90.96;101374.53;5051840;28;20123;-76
2021/07/23 03:19:56;;;;;;;27.58;13.50;;;;;;;11.74;91.05;101376.84;5053056;28;20369;-76
2021/07/23 03:22:23;;;;;;;32.97;14.25;;;;;;;11.68;90.82;101365.91;5070362;28;20048;-76
2021/07/23 03:24:50;;;;;;;27.13;13.10;;;;;;;11.73;91.12;101379.66;5072588;28;20048;-76
2021/07/23 03:27:36;;;;;;;29.08;13.07;;;;;;;11.66;90.69;101371.44;5073228;28;20036;-76
2021/07/23 03:30:13;;;;;;;32.13;15.10;;;;;;;11.71;91.23;101384.34;5057809;28;20412;-76
2021/07/23 03:32:38;;;;;;;32.65;15.40;;;;;;;11.66;91.16;101376.78;5055669;28;20056;-76
2021/07/23 03:35:05;;;;;;;28.63;13.15;;;;;;;11.66;90.64;101367.91;5073348;28;20119;-76
2021/07/23 03:37:37;;;;;;;27.33;15.10;;;;;;;11.67;91.04;101367.75;5073022;28;20074;-76
2021/07/23 03:40:11;;;;;;;28.15;14.70;;;;;;;11.70;90.77;101372.78;5072250;28;20035;-76
2021/07/23 03:42:39;;;;;;;28.35;13.65;;;;;;;11.65;90.92;101359.06;5072061;28;20028;-76
2021/07/23 03:45:16;;;;;;;27.25;14.52;;;;;;;11.78;90.91;101367.53;5072066;28;20027;-76
2021/07/23 03:47:44;;;;;;;32.80;16.55;;;;;;;11.94;91.21;101369.53;5071796;28;20032;-76
2021/07/23 03:50:10;;;;;;;30.02;14.85;;;;;;;11.94;91.35;101371.34;5072194;28;20047;-76
2021/07/23 03:52:39;;;;;;;38.15;17.13;;;;;;;11.95;91.44;101381.91;5071940;28;20128;-76
2021/07/23 03:55:33;;;;;;;30.35;14.68;;;;;;;12.14;91.71;101375.50;5035676;28;20387;-75
2021/07/23 03:57:59;;;;;;;31.40;14.73;;;;;;;12.24;91.77;101402.16;5072666;28;20028;-76
2021/07/23 04:00:24;;;;;;;29.17;15.05;;;;;;;12.33;92.00;101395.84;5072125;28;20039;-76
2021/07/23 04:02:54;;;;;;;38.40;17.23;;;;;;;12.46;91.96;101395.44;5072714;28;20075;-76
2021/07/23 04:05:20;;;;;;;30.87;15.53;;;;;;;12.53;91.91;101399.16;5071912;28;20052;-76
2021/07/23 04:07:46;;;;;;;29.23;16.20;;;;;;;12.64;91.76;101398.03;5071460;28;20081;-76
2021/07/23 04:10:11;;;;;;;34.87;16.00;;;;;;;12.74;91.59;101396.09;5072987;28;20064;-77
2021/07/23 04:12:37;;;;;;;33.03;15.32;;;;;;;12.76;91.60;101411.97;5071567;28;20040;-76
2021/07/23 04:15:06;;;;;;;32.40;15.93;;;;;;;12.86;91.50;101402.84;5054813;28;20052;-76
2021/07/23 04:17:34;;;;;;;38.97;16.05;;;;;;;12.91;91.28;101399.66;5071504;28;20763;-76
2021/07/23 04:19:59;;;;;;;36.20;15.53;;;;;;;12.96;91.28;101397.34;5071646;28;20123;-76
2021/07/23 04:22:25;;;;;;;33.83;15.02;;;;;;;12.94;91.22;101390.47;5071546;28;20047;-76
2021/07/23 04:24:59;;;;;;;29.10;13.85;;;;;;;13.05;91.29;101403.56;5071317;28;20470;-76
2021/07/23 04:27:26;;;;;;;32.63;14.73;;;;;;;13.13;91.06;101410.78;5071634;28;20032;-76
2021/07/23 04:30:12;;;;;;;25.90;15.38;;;;;;;13.21;90.93;101410.81;5071989;28;20143;-76
2021/07/23 04:33:00;;;;;;;33.22;13.90;;;;;;;13.24;90.76;101410.50;5066673;28;20048;-77
2021/07/23 04:35:27;;;;;;;24.58;12.57;;;;;;;13.35;90.76;101437.03;5070328;28;20043;-76
2021/07/23 04:37:52;;;;;;;30.57;13.97;;;;;;;13.42;90.70;101429.19;5054467;28;20036;-76
2021/07/23 04:40:23;;;;;;;26.55;14.15;;;;;;;13.47;90.03;101440.25;5071252;28;20037;-76
2021/07/23 04:42:49;;;;;;;29.63;14.20;;;;;;;13.59;90.00;101430.03;5072165;28;20107;-76
2021/07/23 04:45:15;;;;;;;24.87;12.43;;;;;;;13.71;90.20;101434.06;5054110;28;20086;-77
2021/07/23 04:47:53;;;;;;;21.67;12.40;;;;;;;13.75;89.53;101431.91;5070980;28;20406;-76
2021/07/23 04:50:19;;;;;;;25.92;13.10;;;;;;;13.79;89.48;101426.03;5054611;28;20052;-76
2021/07/23 04:53:11;;;;;;;22.98;13.30;;;;;;;13.85;89.47;101425.34;5047890;28;20102;-76
2021/07/23 04:55:59;;;;;;;29.88;12.68;;;;;;;13.84;88.86;101423.69;5071449;28;20373;-76
2021/07/23 04:58:29;;;;;;;29.17;13.93;;;;;;;14.01;88.84;101432.56;5070676;28;20028;-76
2021/07/23 05:00:54;;;;;;;23.27;12.03;;;;;;;14.08;87.99;101435.44;5069628;28;20055;-76
2021/07/23 05:03:23;;;;;;;20.60;10.83;;;;;;;14.35;87.80;101424.31;5052851;28;20051;-76
2021/07/23 05:05:50;;;;;;;24.08;11.82;;;;;;;14.71;86.65;101437.34;5068990;28;20032;-76
2021/07/23 05:08:15;;;;;;;18.33;10.80;;;;;;;14.88;84.73;101431.94;5069406;28;20123;-76
2021/07/23 05:10:42;;;;;;;21.38;10.57;;;;;;;15.05;84.51;101438.06;5052622;28;20147;-76
2021/07/23 05:13:09;;;;;;;17.63;9.60;;;;;;;15.27;84.14;101434.59;5069056;28;20028;-76
2021/07/23 05:15:36;;;;;;;17.27;10.35;;;;;;;15.13;82.05;101430.81;5070956;28;20493;-77
2021/07/23 05:18:03;;;;;;;17.92;10.27;;;;;;;15.09;81.98;101423.25;5069996;28;20433;-76
2021/07/23 05:20:28;;;;;;;18.10;9.63;;;;;;;15.28;82.92;101427.38;5070156;28;20029;-76
2021/07/23 05:22:53;;;;;;;21.07;10.67;;;;;;;15.48;80.66;101435.84;5070958;28;20528;-76
2021/07/23 05:25:19;;;;;;;15.30;9.03;;;;;;;15.76;80.32;101436.19;5069988;28;20032;-76
2021/07/23 05:27:44;;;;;;;16.70;9.70;;;;;;;15.79;78.25;101425.88;5071106;28;20126;-76
2021/07/23 05:30:09;;;;;;;16.73;9.67;;;;;;;16.12;77.97;101435.53;5071265;28;20036;-77
2021/07/23 05:32:35;;;;;;;20.77;9.53;;;;;;;16.49;75.90;101436.53;5069662;28;20031;-77
2021/07/23 05:35:00;;;;;;;14.63;8.63;;;;;;;17.15;72.75;101442.84;5071038;28;20127;-77
2021/07/23 05:37:25;;;;;;;18.93;8.93;;;;;;;17.93;71.07;101451.16;5069650;28;20170;-76
2021/07/23 05:39:51;;;;;;;15.50;7.23;;;;;;;18.42;67.61;101450.31;5070163;28;20143;-76
2021/07/23 05:42:16;;;;;;;12.17;7.50;;;;;;;18.81;65.81;101448.94;5069865;28;20137;-77
2021/07/23 05:44:42;;;;;;;15.37;7.23;;;;;;;18.97;65.10;101445.91;5069690;28;20076;-76
2021/07/23 05:47:07;;;;;;;15.13;8.20;;;;;;;19.60;62.82;101455.69;5069420;28;20127;-76
2021/07/23 05:49:32;;;;;;;13.07;6.07;;;;;;;19.48;61.67;101447.34;5069939;28;20049;-76
2021/07/23 05:51:58;;;;;;;13.63;6.83;;;;;;;19.78;61.46;101449.69;5070450;28;20028;-76
2021/07/23 05:54:23;;;;;;;12.10;6.20;;;;;;;20.43;59.60;101449.91;5070800;28;20473;-77
2021/07/23 05:56:48;;;;;;;15.10;6.33;;;;;;;19.68;60.24;101433.84;5070464;28;20036;-77
2021/07/23 05:59:14;;;;;;;8.70;6.20;;;;;;;19.74;61.01;101446.59;5069942;28;20036;-77
2021/07/23 06:01:39;;;;;;;9.23;6.17;;;;;;;19.75;61.03;101448.25;5070465;28;20040;-77
2021/07/23 06:04:04;;;;;;;10.23;5.90;;;;;;;20.29;58.32;101446.38;5070639;28;20037;-77
2021/07/23 06:06:30;;;;;;;8.37;5.27;;;;;;;20.24;59.97;101441.59;5070229;28;20036;-76
2021/07/23 06:08:56;;;;;;;10.63;5.70;;;;;;;20.93;56.77;101452.97;5070412;28;20047;-77
2021/07/23 06:11:22;;;;;;;;;;;;;;;20.83;56.19;101447.97;5070080;28;20044;-76
2021/07/23 06:13:47;;;;;;;13.00;4.90;;;;;;;20.70;58.20;101437.19;5069224;28;19916;-77
2021/07/23 06:16:13;;;;;;;8.80;4.50;;;;;;;20.34;57.69;101432.19;5069145;28;20124;-77
2021/07/23 06:18:39;;;;;;;9.88;5.80;;;;;;;20.15;58.19;101423.03;5069336;28;20068;-77
2021/07/23 06:21:06;;;;;;;8.73;5.30;;;;;;;20.30;58.66;101430.94;5070407;28;20036;-77
2021/07/23 06:23:31;;;;;;;12.95;5.80;;;;;;;20.59;57.47;101448.69;5070148;28;20074;-77
2021/07/23 06:26:00;;;;;;;7.93;4.97;;;;;;;20.61;57.60;101449.31;5052410;28;20056;-76
2021/07/23 06:28:25;;;;;;;6.88;4.35;;;;;;;20.92;55.20;101445.88;5069268;28;20118;-76
2021/07/23 06:30:50;;;;;;;9.87;4.47;;;;;;;21.70;55.12;101453.03;5052661;28;20111;-77
2021/07/23 06:33:16;;;;;;;11.90;5.13;;;;;;;21.52;54.29;101452.91;5052288;28;20089;-76
2021/07/23 06:35:41;;;;;;;6.30;4.17;;;;;;;20.94;54.51;101442.94;5070017;28;20036;-77
2021/07/23 06:38:06;;;;;;;6.90;3.77;;;;;;;20.20;56.68;101431.38;5068792;28;20139;-77
2021/07/23 06:40:31;;;;;;;9.67;3.93;;;;;;;20.31;56.66;101433.44;5069384;28;20078;-76
2021/07/23 06:42:57;;;;;;;9.17;3.97;;;;;;;20.63;55.68;101437.19;5068735;28;20032;-76
2021/07/23 06:45:22;;;;;;;5.47;3.47;;;;;;;20.71;55.86;101438.00;5051745;28;20033;-77
2021/07/23 06:47:47;;;;;;;10.17;4.10;;;;;;;21.52;53.74;101448.34;5069864;28;20032;-77
2021/07/23 06:50:13;;;;;;;7.67;3.90;;;;;;;21.79;51.58;101451.69;5068815;28;20086;-76
2021/07/23 06:52:38;;;;;;;5.00;3.50;;;;;;;22.45;51.63;101461.25;5070038;28;20040;-77
2021/07/23 06:55:04;;;;;;;6.00;3.20;;;;;;;22.34;51.76;101451.91;5068552;28;20040;-77
2021/07/23 06:57:32;;;;;;;3.70;3.33;;;;;;;22.44;51.49;101456.03;5071613;28;20043;-77
2021/07/23 06:59:57;;;;;;;4.95;2.92;;;;;;;23.25;49.75;101470.41;5074606;28;20110;-77
2021/07/23 07:02:23;;;;;;;6.20;3.10;;;;;;;22.63;50.81;101454.97;5057119;28;20024;-77
2021/07/23 07:04:48;;;;;;;4.90;3.50;;;;;;;21.92;50.92;101437.19;5073542;28;20028;-77
2021/07/23 07:07:13;;;;;;;9.67;3.53;;;;;;;21.14;53.60;101429.28;5073731;28;20377;-77
2021/07/23 07:09:40;;;;;;;5.10;3.40;;;;;;;19.96;55.15;101416.59;5074953;28;20492;-77
2021/07/23 07:12:05;;;;;;;5.45;3.70;;;;;;;18.80;58.76;101425.63;5073826;28;20291;-77
2021/07/23 07:14:30;;;;;;;7.47;4.50;;;;;;;18.38;60.63;101430.13;5073592;28;20078;-77
2021/07/23 07:16:56;;;;;;;6.33;3.67;;;;;;;18.12;61.95;101431.63;5074772;28;20043;-77
2021/07/23 07:19:22;;;;;;;6.60;4.17;;;;;;;17.92;63.49;101430.59;5075674;28;20040;-77
2021/07/23 07:21:48;;;;;;;;;;;;;;;18.13;62.93;101435.16;5075982;28;20032;-77
2021/07/23 07:24:15;;;;;;;6.15;3.60;;;;;;;18.14;62.14;101437.66;5075384;28;19977;-76
2021/07/23 07:26:41;;;;;;;6.20;3.45;;;;;;;18.23;64.03;101434.78;5076096;28;20054;-77
2021/07/23 07:29:06;;;;;;;8.10;4.03;;;;;;;19.17;59.59;101462.22;5058733;28;20044;-77
2021/07/23 07:31:32;;;;;;;8.80;4.07;;;;;;;20.16;58.17;101468.94;5058695;28;20042;-77
2021/07/23 07:33:57;;;;;;;10.20;3.70;;;;;;;19.93;56.97;101455.78;5076390;28;20094;-77
2021/07/23 07:36:22;;;;;;;10.87;3.97;;;;;;;21.04;54.62;101479.44;5058333;28;20029;-77
2021/07/23 07:38:48;;;;;;;4.57;3.47;;;;;;;20.60;53.41;101464.75;5076340;28;20040;-77
2021/07/23 07:41:20;;;;;;;8.23;3.60;;;;;;;20.59;54.07;101457.66;5076181;28;20028;-77
2021/07/23 07:43:46;;;;;;;5.13;3.85;;;;;;;20.27;55.18;101453.06;5075275;28;20033;-77
2021/07/23 07:46:12;;;;;;;8.68;4.35;;;;;;;19.64;57.48;101437.97;5074290;28;20147;-77
2021/07/23 07:48:37;;;;;;;6.90;3.90;;;;;;;18.95;58.96;101431.72;5075439;28;20103;-77
2021/07/23 07:51:02;;;;;;;6.37;3.43;;;;;;;18.81;60.84;101431.88;5075267;28;20457;-78
2021/07/23 07:53:28;;;;;;;5.93;3.50;;;;;;;19.09;59.26;101442.63;5058513;28;20435;-77
2021/07/23 07:55:53;;;;;;;8.53;4.00;;;;;;;20.23;58.11;101463.50;5075652;28;20039;-77
2021/07/23 07:58:18;;;;;;;4.83;3.33;;;;;;;20.78;57.35;101466.78;5076185;28;20033;-77
2021/07/23 08:00:44;;;;;;;5.93;3.30;;;;;;;21.47;54.71;101459.03;5075208;28;20503;-77
2021/07/23 08:03:09;;;;;;;4.47;3.20;;;;;;;20.68;54.09;101460.97;5076100;28;20089;-77
2021/07/23 08:05:35;;;;;;;5.77;3.50;;;;;;;20.91;55.64;101452.34;5058204;28;20135;-76
2021/07/23 08:08:03;;;;;;;8.13;3.40;;;;;;;21.06;54.63;101463.75;5076053;28;20094;-77
2021/07/23 08:10:32;;;;;;;5.47;3.38;;;;;;;20.03;56.81;101442.63;5071026;28;20036;-77
2021/07/23 08:12:58;;;;;;;5.05;2.83;;;;;;;20.19;57.07;101445.97;5071863;28;20044;-77
2021/07/23 08:15:23;;;;;;;5.03;2.83;;;;;;;19.83;56.37;101436.41;5072780;28;20120;-77
2021/07/23 08:17:48;;;;;;;5.90;3.40;;;;;;;19.38;59.50;101430.63;5071492;28;20052;-77
2021/07/23 08:20:14;;;;;;;7.80;3.40;;;;;;;19.67;58.38;101447.59;5072941;28;20406;-77
2021/07/23 08:22:40;;;;;;;6.03;3.85;;;;;;;19.84;56.99;101453.47;5071589;28;20098;-76
2021/07/23 08:25:05;;;;;;;5.53;3.20;;;;;;;19.99;56.61;101452.25;5072570;28;20020;-77
2021/07/23 08:27:31;;;;;;;5.75;3.00;;;;;;;19.64;55.47;101443.38;5054718;28;20067;-76
2021/07/23 08:29:58;;;;;;;9.93;4.07;;;;;;;19.39;60.08;101435.03;5072808;28;20040;-77
2021/07/23 08:32:23;;;;;;;8.00;3.53;;;;;;;19.90;57.93;101449.91;5072423;28;20020;-77
2021/07/23 08:34:55;;;;;;;8.07;3.73;;;;;;;19.54;57.08;101440.25;5054862;28;20037;-77
2021/07/23 08:37:20;;;;;;;7.93;3.22;;;;;;;19.15;57.64;101430.97;5071270;28;20036;-77
2021/07/23 08:39:45;;;;;;;9.53;3.10;;;;;;;19.46;56.67;101446.72;5071514;28;20777;-77
2021/07/23 08:42:28;;;;;;;7.73;3.10;;;;;;;19.45;56.61;101441.47;5054533;28;20040;-77
2021/07/23 08:44:55;;;;;;;8.43;3.20;;;;;;;19.82;54.98;101445.53;5071358;28;20021;-77
2021/07/23 08:47:21;;;;;;;9.20;3.15;;;;;;;19.94;55.33;101445.75;5071002;28;20036;-77
2021/07/23 08:49:47;;;;;;;7.65;3.25;;;;;;;19.65;55.42;101445.09;5071420;28;20040;-77
2021/07/23 08:52:12;;;;;;;4.40;2.80;;;;;;;19.90;55.49;101448.06;5071887;28;20039;-77
2021/07/23 08:54:38;;;;;;;5.43;3.00;;;;;;;20.03;54.23;101447.22;5071166;28;20335;-76
2021/07/23 08:57:07;;;;;;;5.60;3.63;;;;;;;19.82;55.00;101438.25;5070894;28;20373;-77
2021/07/23 08:59:33;;;;;;;5.05;3.38;;;;;;;19.45;56.30;101433.38;5071275;28;20028;-77
2021/07/23 09:02:06;;;;;;;6.43;3.50;;;;;;;19.49;58.52;101429.22;5071197;28;20469;-77
2021/07/23 09:04:36;;;;;;;5.32;3.42;;;;;;;19.80;57.93;101443.03;5071760;28;20075;-77
2021/07/23 09:07:14;;;;;;;6.03;3.33;;;;;;;20.06;57.10;101446.81;5070849;28;20040;-76
2021/07/23 09:09:39;;;;;;;6.22;3.72;;;;;;;20.35;57.27;101450.16;5054144;28;20090;-77
2021/07/23 09:12:05;;;;;;;8.90;3.50;;;;;;;19.90;57.05;101444.50;5070893;28;20357;-76
2021/07/23 09:14:30;;;;;;;5.70;3.55;;;;;;;20.29;56.74;101445.56;5070443;28;20036;-77
2021/07/23 09:16:56;;;;;;;7.07;3.57;;;;;;;20.76;56.75;101458.00;5070571;28;20060;-77
2021/07/23 09:19:22;;;;;;;7.43;3.80;;;;;;;20.76;55.95;101454.47;5053978;28;20051;-76
2021/07/23 09:21:55;;;;;;;6.65;4.03;;;;;;;20.76;54.34;101446.34;5071460;28;20086;-77
2021/07/23 09:24:22;;;;;;;6.47;3.63;;;;;;;20.68;54.97;101449.28;5070426;28;20458;-76
2021/07/23 09:26:48;;;;;;;4.18;3.20;;;;;;;20.52;55.23;101454.06;5070453;28;20028;-77
2021/07/23 09:29:14;;;;;;;3.97;3.10;;;;;;;20.47;54.26;101459.31;5071630;28;20166;-77
2021/07/23 09:31:40;;;;;;;7.00;3.72;;;;;;;19.75;53.84;101434.69;5070407;28;20032;-77
2021/07/23 09:34:05;;;;;;;4.15;2.78;;;;;;;19.45;56.73;101427.94;5070305;28;20098;-77
2021/07/23 09:36:32;;;;;;;6.93;3.23;;;;;;;19.52;54.47;101432.31;5053727;28;20028;-77
2021/07/23 09:39:07;;;;;;;6.00;3.42;;;;;;;19.70;55.19;101439.91;5070295;28;20036;-77
2021/07/23 09:41:33;;;;;;;5.22;3.55;;;;;;;19.93;56.79;101436.81;5070251;28;20042;-76
2021/07/23 09:44:11;;;;;;;7.72;3.33;;;;;;;20.24;54.28;101441.59;5070037;28;20450;-77
2021/07/23 09:46:44;;;;;;;8.48;3.45;;;;;;;20.19;54.37;101440.56;5070064;28;20548;-76
2021/07/23 09:49:20;;;;;;;6.72;3.20;;;;;;;20.09;54.88;101435.56;5070969;28;20374;-76
2021/07/23 09:51:47;;;;;;;7.97;4.35;;;;;;;20.20;54.35;101432.19;5070079;28;20054;-77
2021/07/23 09:54:12;;;;;;;13.93;5.82;;;;;;;19.90;56.80;101423.69;5052969;28;20074;-77
2021/07/23 09:56:38;;;;;;;8.40;3.97;;;;;;;20.13;56.90;101435.97;5053151;28;20064;-77
2021/07/23 09:59:09;;;;;;;4.00;3.40;;;;;;;20.07;55.39;101426.81;5070877;28;20036;-77
2021/07/23 10:01:40;;;;;;;5.00;3.47;;;;;;;19.74;57.48;101416.78;5069971;28;20448;-77
2021/07/23 10:04:13;;;;;;;5.38;3.42;;;;;;;20.34;54.95;101427.59;5069516;28;20040;-77
2021/07/23 10:06:57;;;;;;;6.50;3.15;;;;;;;20.65;53.48;101421.53;5069578;28;20055;-77
2021/07/23 10:09:26;;;;;;;6.85;3.88;;;;;;;20.10;56.61;101417.41;5052857;28;20036;-77
2021/07/23 10:11:52;;;;;;;6.80;2.75;;;;;;;20.67;54.49;101426.72;5052871;28;20421;-77
2021/07/23 10:14:19;;;;;;;;;;;;;;;21.27;52.86;101448.22;5053114;28;20647;-78
2021/07/23 10:16:47;;;;;;;8.25;4.07;;;;;;;20.79;54.01;101421.47;5070090;28;19943;-77
2021/07/23 10:19:13;;;;;;;9.98;3.78;;;;;;;20.97;53.76;101427.06;5069497;28;20039;-77
2021/07/23 10:21:38;;;;;;;4.97;3.05;;;;;;;20.76;53.23;101424.63;5069054;28;20054;-77
2021/07/23 10:24:06;;;;;;;8.47;3.50;;;;;;;20.22;54.25;101430.13;5069274;28;20090;-77
2021/07/23 10:26:31;;;;;;;7.95;3.38;;;;;;;20.66;52.75;101430.50;5069147;28;20029;-76
2021/07/23 10:28:58;;;;;;;6.65;3.55;;;;;;;21.47;52.27;101443.56;5069476;28;20063;-77
2021/07/23 10:31:27;;;;;;;6.35;3.17;;;;;;;21.54;52.29;101427.22;5070124;28;20116;-77
2021/07/23 10:33:58;;;;;;;4.07;3.03;;;;;;;22.04;50.86;101440.03;5069845;28;20108;-77
2021/07/23 10:36:26;;;;;;;3.63;2.85;;;;;;;21.70;51.80;101423.13;5069841;28;20032;-77
2021/07/23 10:39:19;;;;;;;6.38;2.90;;;;;;;21.77;51.06;101425.81;5069248;28;20035;-77
2021/07/23 10:41:45;;;;;;;5.43;3.35;;;;;;;22.46;49.49;101451.19;5070078;28;20048;-77
2021/07/23 10:44:26;;;;;;;4.77;2.80;;;;;;;23.34;47.83;101447.25;5069004;28;20043;-77
2021/07/23 10:46:51;;;;;;;5.38;3.35;;;;;;;23.75;46.27;101437.47;5068180;28;20052;-77
2021/07/23 10:49:32;;;;;;;7.23;4.00;;;;;;;23.70;47.72;101440.03;5070186;28;20036;-76
2021/07/23 10:51:59;;;;;;;5.28;3.42;;;;;;;24.39;47.19;101440.38;5069021;28;20040;-76
2021/07/23 10:54:34;;;;;;;10.40;3.80;;;;;;;23.83;47.25;101428.13;5052143;28;20024;-77
2021/07/23 10:57:03;;;;;;;7.82;3.72;;;;;;;23.54;47.35;101412.38;5068689;28;20064;-77
2021/07/23 10:59:38;;;;;;;6.60;3.97;;;;;;;22.76;48.87;101408.56;5069211;28;20115;-77
2021/07/23 11:02:16;;;;;;;8.32;4.13;;;;;;;22.50;49.13;101403.41;5068611;28;20042;-77
2021/07/23 11:04:45;;;;;;;6.70;3.58;;;;;;;22.08;47.76;101395.88;5069891;28;20047;-77
2021/07/23 11:07:12;;;;;;;8.35;3.67;;;;;;;22.36;49.52;101412.78;5068535;28;20394;-77
2021/07/23 11:09:38;;;;;;;7.82;3.58;;;;;;;23.91;46.82;101425.88;5069008;28;20036;-77
2021/07/23 11:12:20;;;;;;;7.88;3.38;;;;;;;24.36;45.61;101428.03;5068750;28;20182;-77
2021/07/23 11:15:00;;;;;;;6.80;4.28;;;;;;;24.27;44.33;101424.00;5068680;28;20037;-77
2021/07/23 11:17:26;;;;;;;7.90;3.30;;;;;;;25.12;42.52;101436.22;5069484;28;20051;-77
2021/07/23 11:19:58;;;;;;;4.65;3.17;;;;;;;24.44;44.30;101414.06;5070031;28;20054;-77
2021/07/23 11:22:25;;;;;;;5.22;3.22;;;;;;;23.54;44.69;101414.28;5068596;28;20044;-77
2021/07/23 11:24:56;;;;;;;3.80;3.40;;;;;;;25.08;42.60;101426.88;5069672;28;20036;-77